sensor_id;sensor_type;location;lat;lon;timestamp;P1;durP1;ratioP1;P2;durP2;ratioP2
33501;SDS011;22396;51.070;4.974;2023-07-22T00:00:59;8.00;;;4.10;;
33501;SDS011;22396;51.070;4.974;2023-07-22T00:03:25;10.52;;;4.25;;
33501;SDS011;22396;51.070;4.974;2023-07-22T00:06:01;9.32;;;4.38;;
33501;SDS011;22396;51.070;4.974;2023-07-22T00:08:27;10.23;;;4.13;;
33501;SDS011;22396;51.070;4.974;2023-07-22T00:10:52;9.50;;;3.50;;
33501;SDS011;22396;51.070;4.974;2023-07-22T00:13:17;12.93;;;4.78;;
33501;SDS011;22396;51.070;4.974;2023-07-22T00:15:43;12.50;;;4.18;;
33501;SDS011;22396;51.070;4.974;2023-07-22T00:18:08;9.73;;;4.43;;
33501;SDS011;22396;51.070;4.974;2023-07-22T00:20:33;8.18;;;4.05;;
33501;SDS011;22396;51.070;4.974;2023-07-22T00:22:59;7.53;;;4.10;;
33501;SDS011;22396;51.070;4.974;2023-07-22T00:25:24;11.10;;;4.60;;
33501;SDS011;22396;51.070;4.974;2023-07-22T00:27:49;7.47;;;4.15;;
33501;SDS011;22396;51.070;4.974;2023-07-22T00:30:14;13.02;;;4.97;;
33501;SDS011;22396;51.070;4.974;2023-07-22T00:32:40;10.15;;;5.40;;
33501;SDS011;22396;51.070;4.974;2023-07-22T00:35:06;15.32;;;5.90;;
33501;SDS011;22396;51.070;4.974;2023-07-22T00:37:31;10.80;;;6.03;;
33501;SDS011;22396;51.070;4.974;2023-07-22T00:39:59;13.45;;;5.30;;
33501;SDS011;22396;51.070;4.974;2023-07-22T00:42:25;8.18;;;4.40;;
33501;SDS011;22396;51.070;4.974;2023-07-22T00:44:53;13.25;;;5.50;;
33501;SDS011;22396;51.070;4.974;2023-07-22T00:47:18;10.77;;;5.18;;
33501;SDS011;22396;51.070;4.974;2023-07-22T00:49:47;11.63;;;4.90;;
33501;SDS011;22396;51.070;4.974;2023-07-22T00:52:13;9.35;;;4.55;;
33501;SDS011;22396;51.070;4.974;2023-07-22T00:54:38;11.73;;;5.07;;
33501;SDS011;22396;51.070;4.974;2023-07-22T00:57:03;9.70;;;4.82;;
33501;SDS011;22396;51.070;4.974;2023-07-22T00:59:29;11.20;;;4.90;;
33501;SDS011;22396;51.070;4.974;2023-07-22T01:01:55;10.57;;;4.90;;
33501;SDS011;22396;51.070;4.974;2023-07-22T01:04:20;10.82;;;5.05;;
33501;SDS011;22396;51.070;4.974;2023-07-22T01:06:48;10.88;;;4.72;;
33501;SDS011;22396;51.070;4.974;2023-07-22T01:09:13;9.80;;;4.80;;
33501;SDS011;22396;51.070;4.974;2023-07-22T01:11:38;13.38;;;5.22;;
33501;SDS011;22396;51.070;4.974;2023-07-22T01:14:03;11.05;;;4.00;;
33501;SDS011;22396;51.070;4.974;2023-07-22T01:16:29;14.50;;;5.18;;
33501;SDS011;22396;51.070;4.974;2023-07-22T01:18:54;13.18;;;4.80;;
33501;SDS011;22396;51.070;4.974;2023-07-22T01:21:23;10.15;;;5.10;;
33501;SDS011;22396;51.070;4.974;2023-07-22T01:23:56;8.80;;;5.00;;
33501;SDS011;22396;51.070;4.974;2023-07-22T01:26:22;11.07;;;5.68;;
33501;SDS011;22396;51.070;4.974;2023-07-22T01:28:47;14.68;;;5.40;;
33501;SDS011;22396;51.070;4.974;2023-07-22T01:31:13;12.65;;;5.22;;
33501;SDS011;22396;51.070;4.974;2023-07-22T01:33:38;10.48;;;5.68;;
33501;SDS011;22396;51.070;4.974;2023-07-22T01:36:04;10.88;;;5.20;;
33501;SDS011;22396;51.070;4.974;2023-07-22T01:38:29;12.32;;;5.50;;
33501;SDS011;22396;51.070;4.974;2023-07-22T01:40:56;12.10;;;4.95;;
33501;SDS011;22396;51.070;4.974;2023-07-22T01:43:21;10.88;;;4.97;;
33501;SDS011;22396;51.070;4.974;2023-07-22T01:45:46;12.50;;;5.65;;
33501;SDS011;22396;51.070;4.974;2023-07-22T01:48:11;12.35;;;4.68;;
33501;SDS011;22396;51.070;4.974;2023-07-22T01:50:37;9.68;;;5.18;;
33501;SDS011;22396;51.070;4.974;2023-07-22T01:53:04;11.20;;;5.35;;
33501;SDS011;22396;51.070;4.974;2023-07-22T01:55:33;10.88;;;5.22;;
33501;SDS011;22396;51.070;4.974;2023-07-22T01:58:01;12.57;;;5.57;;
33501;SDS011;22396;51.070;4.974;2023-07-22T02:00:26;9.32;;;5.03;;
33501;SDS011;22396;51.070;4.974;2023-07-22T02:02:52;10.05;;;5.00;;
33501;SDS011;22396;51.070;4.974;2023-07-22T02:05:17;13.38;;;5.60;;
33501;SDS011;22396;51.070;4.974;2023-07-22T02:07:43;10.57;;;5.18;;
33501;SDS011;22396;51.070;4.974;2023-07-22T02:10:08;11.02;;;5.10;;
33501;SDS011;22396;51.070;4.974;2023-07-22T02:12:34;9.57;;;4.80;;
33501;SDS011;22396;51.070;4.974;2023-07-22T02:15:00;9.57;;;4.90;;
33501;SDS011;22396;51.070;4.974;2023-07-22T02:17:25;9.73;;;5.35;;
33501;SDS011;22396;51.070;4.974;2023-07-22T02:19:51;11.27;;;5.20;;
33501;SDS011;22396;51.070;4.974;2023-07-22T02:22:16;10.55;;;5.15;;
33501;SDS011;22396;51.070;4.974;2023-07-22T02:24:41;13.68;;;5.07;;
33501;SDS011;22396;51.070;4.974;2023-07-22T02:27:07;10.65;;;5.30;;
33501;SDS011;22396;51.070;4.974;2023-07-22T02:29:33;10.85;;;5.47;;
33501;SDS011;22396;51.070;4.974;2023-07-22T02:31:59;12.52;;;5.85;;
33501;SDS011;22396;51.070;4.974;2023-07-22T02:34:24;13.05;;;5.00;;
33501;SDS011;22396;51.070;4.974;2023-07-22T02:36:50;12.38;;;5.13;;
33501;SDS011;22396;51.070;4.974;2023-07-22T02:39:17;11.73;;;5.18;;
33501;SDS011;22396;51.070;4.974;2023-07-22T02:41:43;10.88;;;5.32;;
33501;SDS011;22396;51.070;4.974;2023-07-22T02:44:08;17.73;;;5.97;;
33501;SDS011;22396;51.070;4.974;2023-07-22T02:46:33;14.57;;;5.95;;
33501;SDS011;22396;51.070;4.974;2023-07-22T02:48:58;11.07;;;5.50;;
33501;SDS011;22396;51.070;4.974;2023-07-22T02:51:26;9.23;;;5.20;;
33501;SDS011;22396;51.070;4.974;2023-07-22T02:53:54;12.25;;;5.53;;
33501;SDS011;22396;51.070;4.974;2023-07-22T02:56:20;14.68;;;6.00;;
33501;SDS011;22396;51.070;4.974;2023-07-22T02:58:48;10.25;;;5.35;;
33501;SDS011;22396;51.070;4.974;2023-07-22T03:01:13;16.88;;;5.93;;
33501;SDS011;22396;51.070;4.974;2023-07-22T03:03:39;10.50;;;5.68;;
33501;SDS011;22396;51.070;4.974;2023-07-22T03:06:05;12.85;;;5.72;;
33501;SDS011;22396;51.070;4.974;2023-07-22T03:08:30;13.30;;;6.10;;
33501;SDS011;22396;51.070;4.974;2023-07-22T03:10:55;11.30;;;5.47;;
33501;SDS011;22396;51.070;4.974;2023-07-22T03:13:21;14.35;;;6.20;;
33501;SDS011;22396;51.070;4.974;2023-07-22T03:15:46;14.18;;;6.70;;
33501;SDS011;22396;51.070;4.974;2023-07-22T03:18:11;15.93;;;6.68;;
33501;SDS011;22396;51.070;4.974;2023-07-22T03:20:37;14.20;;;6.25;;
33501;SDS011;22396;51.070;4.974;2023-07-22T03:23:03;11.25;;;5.30;;
33501;SDS011;22396;51.070;4.974;2023-07-22T03:25:28;16.27;;;6.40;;
33501;SDS011;22396;51.070;4.974;2023-07-22T03:27:53;14.90;;;6.53;;
33501;SDS011;22396;51.070;4.974;2023-07-22T03:30:21;12.00;;;6.22;;
33501;SDS011;22396;51.070;4.974;2023-07-22T03:32:49;12.45;;;6.22;;
33501;SDS011;22396;51.070;4.974;2023-07-22T03:35:16;14.43;;;6.05;;
33501;SDS011;22396;51.070;4.974;2023-07-22T03:37:41;16.73;;;6.22;;
33501;SDS011;22396;51.070;4.974;2023-07-22T03:40:07;13.77;;;5.90;;
33501;SDS011;22396;51.070;4.974;2023-07-22T03:42:37;14.13;;;5.93;;
33501;SDS011;22396;51.070;4.974;2023-07-22T03:45:03;12.77;;;6.38;;
33501;SDS011;22396;51.070;4.974;2023-07-22T03:47:28;16.75;;;6.30;;
33501;SDS011;22396;51.070;4.974;2023-07-22T03:49:54;16.15;;;7.07;;
33501;SDS011;22396;51.070;4.974;2023-07-22T03:52:19;19.63;;;7.28;;
33501;SDS011;22396;51.070;4.974;2023-07-22T03:54:45;25.67;;;7.10;;
33501;SDS011;22396;51.070;4.974;2023-07-22T03:57:10;16.80;;;6.47;;
33501;SDS011;22396;51.070;4.974;2023-07-22T03:59:35;18.23;;;6.45;;
33501;SDS011;22396;51.070;4.974;2023-07-22T04:02:01;16.90;;;6.50;;
33501;SDS011;22396;51.070;4.974;2023-07-22T04:04:26;16.80;;;7.15;;
33501;SDS011;22396;51.070;4.974;2023-07-22T04:06:52;13.43;;;6.40;;
33501;SDS011;22396;51.070;4.974;2023-07-22T04:09:17;16.55;;;6.22;;
33501;SDS011;22396;51.070;4.974;2023-07-22T04:11:44;15.07;;;6.82;;
33501;SDS011;22396;51.070;4.974;2023-07-22T04:14:10;13.60;;;6.43;;
33501;SDS011;22396;51.070;4.974;2023-07-22T04:16:37;16.25;;;6.65;;
33501;SDS011;22396;51.070;4.974;2023-07-22T04:19:02;16.67;;;7.15;;
33501;SDS011;22396;51.070;4.974;2023-07-22T04:21:27;14.73;;;6.07;;
33501;SDS011;22396;51.070;4.974;2023-07-22T04:23:53;12.60;;;6.05;;
33501;SDS011;22396;51.070;4.974;2023-07-22T04:26:18;12.90;;;6.60;;
33501;SDS011;22396;51.070;4.974;2023-07-22T04:28:43;16.85;;;7.10;;
33501;SDS011;22396;51.070;4.974;2023-07-22T04:31:09;14.50;;;6.40;;
33501;SDS011;22396;51.070;4.974;2023-07-22T04:33:34;11.38;;;5.95;;
33501;SDS011;22396;51.070;4.974;2023-07-22T04:36:02;17.80;;;7.00;;
33501;SDS011;22396;51.070;4.974;2023-07-22T04:38:27;16.75;;;7.15;;
33501;SDS011;22396;51.070;4.974;2023-07-22T04:40:53;18.10;;;6.93;;
33501;SDS011;22396;51.070;4.974;2023-07-22T04:43:18;18.65;;;7.22;;
33501;SDS011;22396;51.070;4.974;2023-07-22T04:45:44;17.10;;;7.03;;
33501;SDS011;22396;51.070;4.974;2023-07-22T04:48:09;16.33;;;7.35;;
33501;SDS011;22396;51.070;4.974;2023-07-22T04:50:36;17.25;;;6.85;;
33501;SDS011;22396;51.070;4.974;2023-07-22T04:53:01;15.02;;;6.88;;
33501;SDS011;22396;51.070;4.974;2023-07-22T04:55:27;16.98;;;6.97;;
33501;SDS011;22396;51.070;4.974;2023-07-22T04:57:54;19.27;;;7.30;;
33501;SDS011;22396;51.070;4.974;2023-07-22T05:00:20;17.65;;;7.28;;
33501;SDS011;22396;51.070;4.974;2023-07-22T05:02:46;23.20;;;8.20;;
33501;SDS011;22396;51.070;4.974;2023-07-22T05:05:14;16.27;;;7.38;;
33501;SDS011;22396;51.070;4.974;2023-07-22T05:07:43;16.13;;;6.53;;
33501;SDS011;22396;51.070;4.974;2023-07-22T05:10:13;17.65;;;8.07;;
33501;SDS011;22396;51.070;4.974;2023-07-22T05:12:39;14.25;;;6.90;;
33501;SDS011;22396;51.070;4.974;2023-07-22T05:15:05;25.55;;;8.30;;
33501;SDS011;22396;51.070;4.974;2023-07-22T05:17:30;18.58;;;6.65;;
33501;SDS011;22396;51.070;4.974;2023-07-22T05:19:56;16.85;;;6.40;;
33501;SDS011;22396;51.070;4.974;2023-07-22T05:22:22;24.52;;;7.55;;
33501;SDS011;22396;51.070;4.974;2023-07-22T05:24:47;17.13;;;7.72;;
33501;SDS011;22396;51.070;4.974;2023-07-22T05:27:13;19.45;;;7.05;;
33501;SDS011;22396;51.070;4.974;2023-07-22T05:29:38;14.82;;;6.88;;
33501;SDS011;22396;51.070;4.974;2023-07-22T05:32:03;16.30;;;7.40;;
33501;SDS011;22396;51.070;4.974;2023-07-22T05:34:29;20.20;;;7.40;;
33501;SDS011;22396;51.070;4.974;2023-07-22T05:36:54;16.80;;;7.40;;
33501;SDS011;22396;51.070;4.974;2023-07-22T05:39:19;22.17;;;7.03;;
33501;SDS011;22396;51.070;4.974;2023-07-22T05:41:44;15.30;;;6.80;;
33501;SDS011;22396;51.070;4.974;2023-07-22T05:44:10;17.00;;;7.32;;
33501;SDS011;22396;51.070;4.974;2023-07-22T05:46:35;21.00;;;7.60;;
33501;SDS011;22396;51.070;4.974;2023-07-22T05:49:00;17.20;;;7.00;;
33501;SDS011;22396;51.070;4.974;2023-07-22T05:51:25;15.88;;;6.50;;
33501;SDS011;22396;51.070;4.974;2023-07-22T05:53:51;18.80;;;7.38;;
33501;SDS011;22396;51.070;4.974;2023-07-22T05:56:16;16.23;;;7.03;;
33501;SDS011;22396;51.070;4.974;2023-07-22T05:58:41;15.20;;;6.82;;
33501;SDS011;22396;51.070;4.974;2023-07-22T06:01:07;17.13;;;6.88;;
33501;SDS011;22396;51.070;4.974;2023-07-22T06:03:32;20.58;;;7.47;;
33501;SDS011;22396;51.070;4.974;2023-07-22T06:05:57;22.65;;;7.97;;
33501;SDS011;22396;51.070;4.974;2023-07-22T06:08:23;16.90;;;6.88;;
33501;SDS011;22396;51.070;4.974;2023-07-22T06:10:48;24.40;;;7.25;;
33501;SDS011;22396;51.070;4.974;2023-07-22T06:13:13;15.95;;;6.85;;
33501;SDS011;22396;51.070;4.974;2023-07-22T06:15:39;15.75;;;7.63;;
33501;SDS011;22396;51.070;4.974;2023-07-22T06:18:13;20.27;;;7.22;;
33501;SDS011;22396;51.070;4.974;2023-07-22T06:20:38;14.38;;;6.30;;
33501;SDS011;22396;51.070;4.974;2023-07-22T06:23:07;15.15;;;6.88;;
33501;SDS011;22396;51.070;4.974;2023-07-22T06:25:32;22.20;;;7.28;;
33501;SDS011;22396;51.070;4.974;2023-07-22T06:27:58;16.30;;;7.32;;
33501;SDS011;22396;51.070;4.974;2023-07-22T06:30:23;18.33;;;7.15;;
33501;SDS011;22396;51.070;4.974;2023-07-22T06:32:51;19.27;;;7.20;;
33501;SDS011;22396;51.070;4.974;2023-07-22T06:35:17;19.67;;;8.05;;
33501;SDS011;22396;51.070;4.974;2023-07-22T06:37:53;17.13;;;6.78;;
33501;SDS011;22396;51.070;4.974;2023-07-22T06:40:18;16.77;;;6.68;;
33501;SDS011;22396;51.070;4.974;2023-07-22T06:42:44;13.98;;;6.90;;
33501;SDS011;22396;51.070;4.974;2023-07-22T06:45:09;17.23;;;6.57;;
33501;SDS011;22396;51.070;4.974;2023-07-22T06:47:35;19.38;;;6.88;;
33501;SDS011;22396;51.070;4.974;2023-07-22T06:50:01;15.77;;;5.30;;
33501;SDS011;22396;51.070;4.974;2023-07-22T06:52:27;21.70;;;6.28;;
33501;SDS011;22396;51.070;4.974;2023-07-22T06:54:53;17.48;;;6.47;;
33501;SDS011;22396;51.070;4.974;2023-07-22T06:57:18;20.58;;;5.95;;
33501;SDS011;22396;51.070;4.974;2023-07-22T06:59:43;13.63;;;7.22;;
33501;SDS011;22396;51.070;4.974;2023-07-22T07:02:09;16.30;;;5.78;;
33501;SDS011;22396;51.070;4.974;2023-07-22T07:04:34;13.05;;;5.60;;
33501;SDS011;22396;51.070;4.974;2023-07-22T07:07:00;14.35;;;5.85;;
33501;SDS011;22396;51.070;4.974;2023-07-22T07:09:25;15.60;;;5.75;;
33501;SDS011;22396;51.070;4.974;2023-07-22T07:11:51;15.68;;;5.40;;
33501;SDS011;22396;51.070;4.974;2023-07-22T07:14:17;13.57;;;5.72;;
33501;SDS011;22396;51.070;4.974;2023-07-22T07:16:42;15.23;;;5.50;;
33501;SDS011;22396;51.070;4.974;2023-07-22T07:19:08;17.15;;;6.25;;
33501;SDS011;22396;51.070;4.974;2023-07-22T07:21:33;18.85;;;5.18;;
33501;SDS011;22396;51.070;4.974;2023-07-22T07:23:58;13.77;;;5.43;;
33501;SDS011;22396;51.070;4.974;2023-07-22T07:26:24;12.80;;;4.32;;
33501;SDS011;22396;51.070;4.974;2023-07-22T07:28:49;10.35;;;4.38;;
33501;SDS011;22396;51.070;4.974;2023-07-22T07:31:16;12.57;;;4.45;;
33501;SDS011;22396;51.070;4.974;2023-07-22T07:33:41;10.98;;;4.35;;
33501;SDS011;22396;51.070;4.974;2023-07-22T07:36:06;8.82;;;3.65;;
33501;SDS011;22396;51.070;4.974;2023-07-22T07:38:32;15.35;;;4.93;;
33501;SDS011;22396;51.070;4.974;2023-07-22T07:40:58;15.05;;;4.53;;
33501;SDS011;22396;51.070;4.974;2023-07-22T07:43:29;10.00;;;3.63;;
33501;SDS011;22396;51.070;4.974;2023-07-22T07:48:56;11.60;;;4.35;;
33501;SDS011;22396;51.070;4.974;2023-07-22T07:51:25;8.65;;;3.78;;
33501;SDS011;22396;51.070;4.974;2023-07-22T07:53:54;13.82;;;4.38;;
33501;SDS011;22396;51.070;4.974;2023-07-22T07:56:20;11.25;;;4.63;;
33501;SDS011;22396;51.070;4.974;2023-07-22T07:58:46;13.93;;;3.58;;
33501;SDS011;22396;51.070;4.974;2023-07-22T08:01:11;14.05;;;4.72;;
33501;SDS011;22396;51.070;4.974;2023-07-22T08:03:37;9.48;;;3.80;;
33501;SDS011;22396;51.070;4.974;2023-07-22T08:06:03;11.30;;;3.92;;
33501;SDS011;22396;51.070;4.974;2023-07-22T08:08:28;15.25;;;4.60;;
33501;SDS011;22396;51.070;4.974;2023-07-22T08:10:57;4.70;;;1.95;;
33501;SDS011;22396;51.070;4.974;2023-07-22T08:13:26;15.80;;;3.72;;
33501;SDS011;22396;51.070;4.974;2023-07-22T08:15:52;12.48;;;2.72;;
33501;SDS011;22396;51.070;4.974;2023-07-22T08:18:21;8.13;;;2.60;;
33501;SDS011;22396;51.070;4.974;2023-07-22T08:20:46;5.35;;;2.60;;
33501;SDS011;22396;51.070;4.974;2023-07-22T08:23:12;8.93;;;2.80;;
33501;SDS011;22396;51.070;4.974;2023-07-22T08:25:43;10.27;;;4.45;;
33501;SDS011;22396;51.070;4.974;2023-07-22T08:28:08;9.30;;;3.70;;
33501;SDS011;22396;51.070;4.974;2023-07-22T08:30:34;9.27;;;3.67;;
33501;SDS011;22396;51.070;4.974;2023-07-22T08:32:59;12.00;;;3.70;;
33501;SDS011;22396;51.070;4.974;2023-07-22T08:35:24;12.93;;;3.33;;
33501;SDS011;22396;51.070;4.974;2023-07-22T08:37:50;15.05;;;3.67;;
33501;SDS011;22396;51.070;4.974;2023-07-22T08:40:15;14.60;;;4.13;;
33501;SDS011;22396;51.070;4.974;2023-07-22T08:42:40;13.40;;;3.80;;
33501;SDS011;22396;51.070;4.974;2023-07-22T08:45:06;6.43;;;2.67;;
33501;SDS011;22396;51.070;4.974;2023-07-22T08:47:34;7.18;;;3.10;;
33501;SDS011;22396;51.070;4.974;2023-07-22T08:50:01;7.38;;;2.63;;
33501;SDS011;22396;51.070;4.974;2023-07-22T08:52:29;12.10;;;3.00;;
33501;SDS011;22396;51.070;4.974;2023-07-22T08:54:54;9.57;;;2.78;;
33501;SDS011;22396;51.070;4.974;2023-07-22T08:57:20;8.60;;;2.42;;
33501;SDS011;22396;51.070;4.974;2023-07-22T08:59:45;6.07;;;2.53;;
33501;SDS011;22396;51.070;4.974;2023-07-22T09:02:14;9.60;;;2.90;;
33501;SDS011;22396;51.070;4.974;2023-07-22T09:04:39;13.07;;;1.58;;
33501;SDS011;22396;51.070;4.974;2023-07-22T09:07:08;7.45;;;2.80;;
33501;SDS011;22396;51.070;4.974;2023-07-22T09:09:34;7.07;;;2.70;;
33501;SDS011;22396;51.070;4.974;2023-07-22T09:11:59;5.60;;;2.60;;
33501;SDS011;22396;51.070;4.974;2023-07-22T09:14:25;5.57;;;2.72;;
33501;SDS011;22396;51.070;4.974;2023-07-22T09:16:50;7.40;;;2.95;;
33501;SDS011;22396;51.070;4.974;2023-07-22T09:19:16;8.02;;;3.03;;
33501;SDS011;22396;51.070;4.974;2023-07-22T09:21:42;6.95;;;2.92;;
33501;SDS011;22396;51.070;4.974;2023-07-22T09:24:23;8.60;;;2.03;;
33501;SDS011;22396;51.070;4.974;2023-07-22T09:26:51;11.20;;;2.42;;
33501;SDS011;22396;51.070;4.974;2023-07-22T09:29:16;7.50;;;2.03;;
33501;SDS011;22396;51.070;4.974;2023-07-22T09:31:52;5.85;;;2.05;;
33501;SDS011;22396;51.070;4.974;2023-07-22T09:34:17;7.68;;;2.45;;
33501;SDS011;22396;51.070;4.974;2023-07-22T09:36:52;5.30;;;2.10;;
33501;SDS011;22396;51.070;4.974;2023-07-22T09:39:18;4.85;;;2.13;;
33501;SDS011;22396;51.070;4.974;2023-07-22T09:41:47;6.90;;;1.95;;
33501;SDS011;22396;51.070;4.974;2023-07-22T09:44:18;7.32;;;1.52;;
33501;SDS011;22396;51.070;4.974;2023-07-22T09:46:47;3.92;;;1.70;;
33501;SDS011;22396;51.070;4.974;2023-07-22T09:49:13;1.98;;;0.57;;
33501;SDS011;22396;51.070;4.974;2023-07-22T09:51:39;3.80;;;1.55;;
33501;SDS011;22396;51.070;4.974;2023-07-22T09:54:04;1.92;;;1.25;;
33501;SDS011;22396;51.070;4.974;2023-07-22T09:56:30;3.63;;;1.58;;
33501;SDS011;22396;51.070;4.974;2023-07-22T09:58:59;1.65;;;0.63;;
33501;SDS011;22396;51.070;4.974;2023-07-22T10:01:25;2.63;;;1.30;;
33501;SDS011;22396;51.070;4.974;2023-07-22T10:03:52;4.07;;;0.93;;
33501;SDS011;22396;51.070;4.974;2023-07-22T10:06:20;4.40;;;1.88;;
33501;SDS011;22396;51.070;4.974;2023-07-22T10:08:48;4.18;;;1.50;;
33501;SDS011;22396;51.070;4.974;2023-07-22T10:11:13;2.20;;;1.00;;
33501;SDS011;22396;51.070;4.974;2023-07-22T10:13:39;3.65;;;1.23;;
33501;SDS011;22396;51.070;4.974;2023-07-22T10:16:04;7.20;;;1.80;;
33501;SDS011;22396;51.070;4.974;2023-07-22T10:18:30;4.47;;;1.55;;
33501;SDS011;22396;51.070;4.974;2023-07-22T10:20:56;2.13;;;1.10;;
33501;SDS011;22396;51.070;4.974;2023-07-22T10:23:22;3.85;;;1.27;;
33501;SDS011;22396;51.070;4.974;2023-07-22T10:25:48;3.17;;;1.00;;
33501;SDS011;22396;51.070;4.974;2023-07-22T10:28:14;6.07;;;1.60;;
33501;SDS011;22396;51.070;4.974;2023-07-22T10:30:40;3.78;;;1.30;;
33501;SDS011;22396;51.070;4.974;2023-07-22T10:33:05;5.97;;;1.23;;
33501;SDS011;22396;51.070;4.974;2023-07-22T10:37:56;4.40;;;1.50;;
33501;SDS011;22396;51.070;4.974;2023-07-22T10:42:53;1.27;;;0.80;;
33501;SDS011;22396;51.070;4.974;2023-07-22T10:45:29;2.47;;;1.15;;
33501;SDS011;22396;51.070;4.974;2023-07-22T10:48:11;2.08;;;1.20;;
33501;SDS011;22396;51.070;4.974;2023-07-22T10:50:47;3.70;;;1.20;;
33501;SDS011;22396;51.070;4.974;2023-07-22T10:56:06;2.55;;;1.17;;
33501;SDS011;22396;51.070;4.974;2023-07-22T10:58:32;2.08;;;1.25;;
33501;SDS011;22396;51.070;4.974;2023-07-22T11:01:41;1.38;;;0.93;;
33501;SDS011;22396;51.070;4.974;2023-07-22T11:06:36;6.30;;;1.60;;
33501;SDS011;22396;51.070;4.974;2023-07-22T11:09:01;3.05;;;1.40;;
33501;SDS011;22396;51.070;4.974;2023-07-22T11:11:37;4.93;;;1.33;;
33501;SDS011;22396;51.070;4.974;2023-07-22T11:14:21;4.57;;;1.88;;
33501;SDS011;22396;51.070;4.974;2023-07-22T11:16:47;4.95;;;1.50;;
33501;SDS011;22396;51.070;4.974;2023-07-22T11:19:16;2.00;;;1.20;;
33501;SDS011;22396;51.070;4.974;2023-07-22T11:21:45;5.15;;;1.63;;
33501;SDS011;22396;51.070;4.974;2023-07-22T11:24:11;3.08;;;1.35;;
33501;SDS011;22396;51.070;4.974;2023-07-22T11:26:37;3.15;;;1.10;;
33501;SDS011;22396;51.070;4.974;2023-07-22T11:29:06;4.07;;;1.80;;
33501;SDS011;22396;51.070;4.974;2023-07-22T11:33:57;4.50;;;1.40;;
33501;SDS011;22396;51.070;4.974;2023-07-22T11:36:22;1.83;;;0.90;;
33501;SDS011;22396;51.070;4.974;2023-07-22T11:38:48;1.73;;;0.90;;
33501;SDS011;22396;51.070;4.974;2023-07-22T11:41:13;1.67;;;1.23;;
33501;SDS011;22396;51.070;4.974;2023-07-22T11:43:39;2.85;;;1.15;;
33501;SDS011;22396;51.070;4.974;2023-07-22T11:46:05;2.97;;;1.33;;
33501;SDS011;22396;51.070;4.974;2023-07-22T11:48:30;3.35;;;1.20;;
33501;SDS011;22396;51.070;4.974;2023-07-22T11:50:59;4.70;;;1.20;;
33501;SDS011;22396;51.070;4.974;2023-07-22T11:53:27;5.20;;;1.58;;
33501;SDS011;22396;51.070;4.974;2023-07-22T11:55:54;3.30;;;1.10;;
33501;SDS011;22396;51.070;4.974;2023-07-22T11:58:25;2.63;;;1.10;;
33501;SDS011;22396;51.070;4.974;2023-07-22T12:01:06;1.70;;;1.08;;
33501;SDS011;22396;51.070;4.974;2023-07-22T12:03:33;2.30;;;1.05;;
33501;SDS011;22396;51.070;4.974;2023-07-22T12:06:02;4.13;;;1.10;;
33501;SDS011;22396;51.070;4.974;2023-07-22T12:08:28;3.65;;;0.75;;
33501;SDS011;22396;51.070;4.974;2023-07-22T12:10:59;2.05;;;1.00;;
33501;SDS011;22396;51.070;4.974;2023-07-22T12:13:25;7.65;;;1.30;;
33501;SDS011;22396;51.070;4.974;2023-07-22T12:16:03;1.20;;;0.80;;
33501;SDS011;22396;51.070;4.974;2023-07-22T12:18:44;1.77;;;1.15;;
33501;SDS011;22396;51.070;4.974;2023-07-22T12:21:10;1.77;;;0.90;;
33501;SDS011;22396;51.070;4.974;2023-07-22T12:23:36;2.03;;;1.05;;
33501;SDS011;22396;51.070;4.974;2023-07-22T12:26:01;1.65;;;1.00;;
33501;SDS011;22396;51.070;4.974;2023-07-22T12:28:27;3.17;;;1.73;;
33501;SDS011;22396;51.070;4.974;2023-07-22T12:30:52;2.53;;;1.20;;
33501;SDS011;22396;51.070;4.974;2023-07-22T12:33:21;1.75;;;1.02;;
33501;SDS011;22396;51.070;4.974;2023-07-22T12:35:46;2.55;;;1.20;;
33501;SDS011;22396;51.070;4.974;2023-07-22T12:38:11;2.47;;;1.30;;
33501;SDS011;22396;51.070;4.974;2023-07-22T12:40:37;3.65;;;1.27;;
33501;SDS011;22396;51.070;4.974;2023-07-22T12:43:03;3.22;;;1.42;;
33501;SDS011;22396;51.070;4.974;2023-07-22T12:45:28;3.70;;;1.50;;
33501;SDS011;22396;51.070;4.974;2023-07-22T12:47:54;4.25;;;1.13;;
33501;SDS011;22396;51.070;4.974;2023-07-22T12:50:19;3.08;;;1.48;;
33501;SDS011;22396;51.070;4.974;2023-07-22T12:52:45;3.42;;;1.20;;
33501;SDS011;22396;51.070;4.974;2023-07-22T12:55:10;3.55;;;1.27;;
33501;SDS011;22396;51.070;4.974;2023-07-22T12:57:38;2.95;;;1.45;;
33501;SDS011;22396;51.070;4.974;2023-07-22T13:00:04;3.97;;;1.10;;
33501;SDS011;22396;51.070;4.974;2023-07-22T13:02:35;3.70;;;1.70;;
33501;SDS011;22396;51.070;4.974;2023-07-22T13:05:00;4.00;;;1.33;;
33501;SDS011;22396;51.070;4.974;2023-07-22T13:07:25;4.25;;;1.25;;
33501;SDS011;22396;51.070;4.974;2023-07-22T13:09:50;2.50;;;1.13;;
33501;SDS011;22396;51.070;4.974;2023-07-22T13:12:18;3.40;;;1.35;;
33501;SDS011;22396;51.070;4.974;2023-07-22T13:14:43;1.70;;;1.20;;
33501;SDS011;22396;51.070;4.974;2023-07-22T13:17:09;2.72;;;1.38;;
33501;SDS011;22396;51.070;4.974;2023-07-22T13:19:34;4.43;;;1.30;;
33501;SDS011;22396;51.070;4.974;2023-07-22T13:21:59;3.40;;;1.40;;
33501;SDS011;22396;51.070;4.974;2023-07-22T13:24:24;4.47;;;1.40;;
33501;SDS011;22396;51.070;4.974;2023-07-22T13:26:49;2.00;;;1.20;;
33501;SDS011;22396;51.070;4.974;2023-07-22T13:29:17;1.90;;;1.10;;
33501;SDS011;22396;51.070;4.974;2023-07-22T13:31:42;1.83;;;1.23;;
33501;SDS011;22396;51.070;4.974;2023-07-22T13:34:07;4.05;;;1.02;;
33501;SDS011;22396;51.070;4.974;2023-07-22T13:36:32;2.30;;;1.20;;
33501;SDS011;22396;51.070;4.974;2023-07-22T13:38:58;2.63;;;1.40;;
33501;SDS011;22396;51.070;4.974;2023-07-22T13:41:23;1.48;;;1.00;;
33501;SDS011;22396;51.070;4.974;2023-07-22T13:43:48;2.33;;;1.60;;
33501;SDS011;22396;51.070;4.974;2023-07-22T13:46:16;5.35;;;1.33;;
33501;SDS011;22396;51.070;4.974;2023-07-22T13:48:41;2.20;;;1.33;;
33501;SDS011;22396;51.070;4.974;2023-07-22T13:51:09;3.72;;;1.30;;
33501;SDS011;22396;51.070;4.974;2023-07-22T13:53:34;4.45;;;1.40;;
33501;SDS011;22396;51.070;4.974;2023-07-22T13:55:59;2.33;;;1.10;;
33501;SDS011;22396;51.070;4.974;2023-07-22T13:58:28;2.72;;;1.23;;
33501;SDS011;22396;51.070;4.974;2023-07-22T14:00:53;6.93;;;1.58;;
33501;SDS011;22396;51.070;4.974;2023-07-22T14:03:19;3.28;;;1.38;;
33501;SDS011;22396;51.070;4.974;2023-07-22T14:05:44;3.10;;;1.33;;
33501;SDS011;22396;51.070;4.974;2023-07-22T14:08:09;2.58;;;1.17;;
33501;SDS011;22396;51.070;4.974;2023-07-22T14:10:35;2.20;;;1.13;;
33501;SDS011;22396;51.070;4.974;2023-07-22T14:13:00;3.88;;;1.30;;
33501;SDS011;22396;51.070;4.974;2023-07-22T14:15:33;2.05;;;1.20;;
33501;SDS011;22396;51.070;4.974;2023-07-22T14:17:58;1.95;;;1.00;;
33501;SDS011;22396;51.070;4.974;2023-07-22T14:20:23;2.50;;;1.20;;
33501;SDS011;22396;51.070;4.974;2023-07-22T14:22:49;2.63;;;1.20;;
33501;SDS011;22396;51.070;4.974;2023-07-22T14:25:17;2.13;;;1.10;;
33501;SDS011;22396;51.070;4.974;2023-07-22T14:27:43;3.20;;;0.77;;
33501;SDS011;22396;51.070;4.974;2023-07-22T14:30:09;4.85;;;1.15;;
33501;SDS011;22396;51.070;4.974;2023-07-22T14:32:34;3.35;;;1.00;;
33501;SDS011;22396;51.070;4.974;2023-07-22T14:35:01;2.33;;;1.15;;
33501;SDS011;22396;51.070;4.974;2023-07-22T14:37:26;2.17;;;1.10;;
33501;SDS011;22396;51.070;4.974;2023-07-22T14:39:52;3.53;;;1.45;;
33501;SDS011;22396;51.070;4.974;2023-07-22T14:42:18;2.55;;;1.00;;
33501;SDS011;22396;51.070;4.974;2023-07-22T14:44:43;2.63;;;1.20;;
33501;SDS011;22396;51.070;4.974;2023-07-22T14:47:08;5.32;;;1.67;;
33501;SDS011;22396;51.070;4.974;2023-07-22T14:49:34;4.05;;;1.35;;
33501;SDS011;22396;51.070;4.974;2023-07-22T14:51:59;3.08;;;1.20;;